Time;durP1;ratioP1;P1;durP2;ratioP2;P2;SDS_P1;SDS_P2;PMS_P1;PMS_P2;Temp;Humidity;BMP_temperature;BMP_pressure;BME280_temperature;BME280_humidity;BME280_pressure;Samples;Min_cycle;Max_cycle;Signal;HPM_P1;HPM_P2
2023/08/21 00:00:51;;;;;;;3.47;2.57;;;;;;;22.44;84.26;101302.00;5052947;28;20240;-72
2023/08/21 00:03:18;;;;;;;4.03;3.30;;;;;;;22.40;83.98;101311.09;5053068;28;20225;-72
2023/08/21 00:05:44;;;;;;;4.87;2.70;;;;;;;22.29;83.47;101329.44;5052675;28;20220;-72
2023/08/21 00:08:11;;;;;;;8.90;2.50;;;;;;;22.27;84.29;101302.91;5051980;28;20219;-72
2023/08/21 00:10:40;;;;;;;6.20;3.10;;;;;;;22.22;84.27;101307.59;5052597;28;20216;-72
2023/08/21 00:13:07;;;;;;;4.47;2.60;;;;;;;22.27;84.02;101305.56;5052213;28;20225;-72
2023/08/21 00:15:34;;;;;;;3.37;2.60;;;;;;;22.30;83.99;101304.53;5052542;28;20545;-72
2023/08/21 00:18:00;;;;;;;2.70;2.50;;;;;;;22.27;83.64;101300.25;5052381;28;20691;-72
2023/08/21 00:20:27;;;;;;;2.40;2.20;;;;;;;22.25;83.86;101302.13;5052186;28;20229;-72
2023/08/21 00:22:53;;;;;;;3.00;2.37;;;;;;;22.24;83.90;101294.19;5052005;28;20225;-72
2023/08/21 00:25:22;;;;;;;3.57;2.47;;;;;;;22.23;83.91;101293.34;5052276;28;20221;-72
2023/08/21 00:27:50;;;;;;;11.90;2.90;;;;;;;22.22;84.96;101275.69;5052293;28;20206;-72
2023/08/21 00:30:16;;;;;;;2.90;2.20;;;;;;;22.24;84.86;101271.16;5051701;28;20201;-72
2023/08/21 00:32:43;;;;;;;7.60;2.33;;;;;;;22.21;83.84;101279.28;5052348;28;20233;-72
2023/08/21 00:35:09;;;;;;;4.33;2.60;;;;;;;22.17;84.26;101278.56;5051885;28;20206;-72
2023/08/21 00:37:36;;;;;;;3.40;2.10;;;;;;;22.17;83.92;101281.22;5051891;28;20678;-72
2023/08/21 00:40:02;;;;;;;4.40;2.60;;;;;;;22.11;83.85;101276.25;5052229;28;20216;-72
2023/08/21 00:42:29;;;;;;;4.67;2.60;;;;;;;22.09;84.25;101271.97;5052048;28;20267;-72
2023/08/21 00:44:57;;;;;;;2.70;2.47;;;;;;;22.07;84.81;101266.72;5050966;28;20237;-72
2023/08/21 00:47:23;;;;;;;8.93;2.47;;;;;;;22.05;85.17;101244.66;5051927;28;20212;-72
2023/08/21 00:49:50;;;;;;;2.60;2.37;;;;;;;22.06;84.09;101254.38;5051657;28;20206;-72
2023/08/21 00:52:17;;;;;;;2.77;2.40;;;;;;;22.08;84.45;101252.50;5051888;28;20235;-72
2023/08/21 00:54:44;;;;;;;8.93;2.60;;;;;;;22.06;84.83;101249.06;5052184;28;20201;-72
2023/08/21 00:57:11;;;;;;;3.63;2.93;;;;;;;22.00;85.02;101246.72;5051580;28;20219;-72
2023/08/21 00:59:38;;;;;;;4.03;2.37;;;;;;;21.99;85.04;101231.72;5051417;28;20554;-72
2023/08/21 01:02:06;;;;;;;2.47;2.27;;;;;;;22.00;85.04;101242.28;5051692;28;20233;-72
2023/08/21 01:04:32;;;;;;;4.27;2.40;;;;;;;21.99;84.84;101239.69;5051578;28;20268;-72
2023/08/21 01:06:59;;;;;;;3.40;2.40;;;;;;;21.98;83.86;101261.88;5051566;28;20220;-72
2023/08/21 01:09:31;;;;;;;3.93;2.03;;;;;;;21.99;84.08;101266.28;5051440;28;20682;-72
2023/08/21 01:12:09;;;;;;;2.73;2.23;;;;;;;21.96;84.04;101269.09;5051336;28;20232;-72
2023/08/21 01:14:43;;;;;;;4.40;2.00;;;;;;;21.89;84.09;101265.91;5051313;28;20200;-72
2023/08/21 01:17:14;;;;;;;5.37;2.37;;;;;;;21.88;84.34;101263.31;5051711;28;20250;-72
2023/08/21 01:19:43;;;;;;;3.23;2.03;;;;;;;21.88;84.56;101264.16;5050993;28;20206;-72
2023/08/21 01:22:09;;;;;;;3.13;2.50;;;;;;;21.91;84.94;101252.53;5051243;28;20217;-72
2023/08/21 01:24:37;;;;;;;3.87;2.30;;;;;;;21.93;85.03;101243.53;5051610;28;20592;-72
2023/08/21 01:27:04;;;;;;;4.07;2.30;;;;;;;21.92;85.26;101235.63;5051423;28;20205;-72
2023/08/21 01:29:31;;;;;;;3.23;1.70;;;;;;;21.79;82.93;101286.78;5051168;28;20201;-72
2023/08/21 01:32:07;;;;;;;3.57;2.30;;;;;;;21.70;82.79;101310.34;5051944;28;20229;-72
2023/08/21 01:34:35;;;;;;;5.40;2.37;;;;;;;21.71;83.81;101291.66;5051205;28;20197;-72
2023/08/21 01:37:01;;;;;;;3.07;2.00;;;;;;;21.68;83.98;101277.66;5051166;28;20212;-72
2023/08/21 01:39:29;;;;;;;3.70;2.17;;;;;;;21.66;84.29;101272.41;5051326;28;20201;-72
2023/08/21 01:41:58;;;;;;;5.30;2.10;;;;;;;21.62;84.77;101265.56;5051233;28;20702;-72
2023/08/21 01:44:26;;;;;;;2.73;1.70;;;;;;;21.60;84.34;101260.34;5050678;28;20259;-72
2023/08/21 01:46:52;;;;;;;3.97;1.80;;;;;;;21.58;84.27;101248.91;5051498;28;20206;-72
2023/08/21 01:49:19;;;;;;;9.70;2.40;;;;;;;21.59;84.91;101242.66;5051236;28;20207;-72
2023/08/21 01:51:46;;;;;;;2.53;1.93;;;;;;;21.59;84.86;101236.50;5051207;28;20702;-72
2023/08/21 01:54:12;;;;;;;7.37;2.10;;;;;;;21.61;84.96;101234.63;5051021;28;20208;-72
2023/08/21 01:56:39;;;;;;;3.23;1.60;;;;;;;21.60;85.56;101225.81;5051210;28;20209;-72
2023/08/21 01:59:07;;;;;;;2.30;2.00;;;;;;;21.61;85.80;101218.69;5050721;28;20702;-72
2023/08/21 02:01:34;;;;;;;2.13;1.97;;;;;;;21.60;85.86;101217.81;5051266;28;20221;-72
2023/08/21 02:04:00;;;;;;;3.13;1.90;;;;;;;21.61;85.72;101218.69;5050762;28;20261;-72
2023/08/21 02:06:26;;;;;;;3.83;2.00;;;;;;;21.60;85.67;101223.16;5051132;28;20213;-72
2023/08/21 02:08:53;;;;;;;3.60;1.90;;;;;;;21.47;83.25;101263.72;5051401;28;20222;-72
2023/08/21 02:11:19;;;;;;;2.93;1.80;;;;;;;21.42;83.28;101282.50;5050910;28;20247;-72
2023/08/21 02:13:46;;;;;;;3.77;2.30;;;;;;;21.30;82.82;101307.00;5050920;28;20209;-72
2023/08/21 02:16:14;;;;;;;4.47;2.13;;;;;;;21.25;82.97;101307.25;5050892;28;20202;-72
2023/08/21 02:18:40;;;;;;;2.40;1.70;;;;;;;21.28;84.46;101271.72;5050023;28;20205;-72
2023/08/21 02:21:07;;;;;;;2.17;1.70;;;;;;;21.31;84.62;101261.78;5050787;28;20660;-72
2023/08/21 02:23:33;;;;;;;2.93;2.23;;;;;;;21.32;84.31;101268.81;5050747;28;20235;-72
2023/08/21 02:25:59;;;;;;;7.80;1.47;;;;;;;21.32;84.46;101257.34;5050934;28;20228;-72
2023/08/21 02:28:26;;;;;;;2.63;1.57;;;;;;;21.29;84.42;101261.03;5050238;28;20205;-72
2023/08/21 02:30:52;;;;;;;2.70;1.90;;;;;;;21.19;84.91;101244.69;5051847;28;20659;-72
2023/08/21 02:33:20;;;;;;;4.07;1.30;;;;;;;21.13;84.31;101244.13;5054373;28;20253;-72
2023/08/21 02:35:47;;;;;;;1.93;1.50;;;;;;;21.10;83.98;101252.25;5054428;28;20202;-72
2023/08/21 02:38:13;;;;;;;3.33;1.93;;;;;;;21.02;84.07;101248.19;5054035;28;20575;-72
2023/08/21 02:40:40;;;;;;;5.00;1.70;;;;;;;21.03;84.79;101244.59;5054591;28;20230;-72
2023/08/21 02:43:06;;;;;;;3.40;1.67;;;;;;;21.03;86.17;101223.38;5053728;28;20235;-72
2023/08/21 02:45:33;;;;;;;3.50;1.80;;;;;;;21.07;86.67;101208.16;5054514;28;20724;-72
2023/08/21 02:47:59;;;;;;;2.70;1.50;;;;;;;21.09;86.04;101208.94;5054325;28;20556;-72
2023/08/21 02:50:27;;;;;;;4.03;1.30;;;;;;;21.05;84.67;101236.56;5053835;28;20214;-72
2023/08/21 02:52:54;;;;;;;3.60;1.57;;;;;;;21.01;83.16;101266.84;5053788;28;20225;-72
2023/08/21 02:55:20;;;;;;;3.20;1.10;;;;;;;21.06;81.62;101307.28;5054280;28;20202;-72
2023/08/21 02:57:47;;;;;;;2.50;1.10;;;;;;;21.07;81.25;101332.03;5054210;28;20217;-72
2023/08/21 03:00:13;;;;;;;4.20;1.63;;;;;;;21.07;81.65;101318.75;5053768;28;20232;-72
2023/08/21 03:02:42;;;;;;;3.57;1.30;;;;;;;20.99;80.84;101340.38;5054250;28;20229;-72
2023/08/21 03:05:09;;;;;;;2.40;1.13;;;;;;;20.77;80.45;101356.47;5053751;28;20228;-72
2023/08/21 03:07:37;;;;;;;2.77;1.37;;;;;;;20.56;81.32;101340.59;5053863;28;20209;-72
2023/08/21 03:10:04;;;;;;;2.40;1.30;;;;;;;20.29;83.28;101307.38;5053332;28;20213;-72
2023/08/21 03:12:30;;;;;;;3.77;1.60;;;;;;;19.89;86.82;101232.31;5053658;28;20579;-72
2023/08/21 03:14:57;;;;;;;3.90;1.83;;;;;;;19.60;88.48;101181.47;5053831;28;20209;-72
2023/08/21 03:17:24;;;;;;;2.60;1.63;;;;;;;19.54;88.96;101153.47;5053668;28;20204;-71
2023/08/21 03:19:51;;;;;;;2.10;2.00;;;;;;;18.95;91.59;101128.72;5053800;28;20212;-71
2023/08/21 03:22:17;;;;;;;2.57;2.07;;;;;;;18.83;93.69;101068.41;5053852;28;20232;-71
2023/08/21 03:24:45;;;;;;;3.03;1.77;;;;;;;18.88;94.05;101042.59;5053439;28;20232;-71
2023/08/21 03:27:11;;;;;;;1.63;1.53;;;;;;;18.89;94.35;101035.50;5053711;28;20214;-71
2023/08/21 03:29:38;;;;;;;3.27;1.90;;;;;;;18.67;95.01;101023.19;5052955;28;20680;-71
2023/08/21 03:32:04;;;;;;;2.43;1.90;;;;;;;18.56;96.05;100999.84;5053368;28;21018;-71
2023/08/21 03:34:31;;;;;;;2.93;2.20;;;;;;;18.61;96.71;100994.34;5052811;28;20279;-71
2023/08/21 03:36:57;;;;;;;2.20;2.00;;;;;;;18.69;96.06;101009.91;5053357;28;20207;-71
2023/08/21 03:39:24;;;;;;;3.17;2.77;;;;;;;18.61;96.36;101002.28;5053260;28;20210;-72
2023/08/21 03:41:52;;;;;;;3.23;2.93;;;;;;;18.70;96.46;100990.47;5052560;28;20243;-71
2023/08/21 03:44:18;;;;;;;2.63;2.30;;;;;;;18.71;97.23;100982.47;5052708;28;20209;-71
2023/08/21 03:46:45;;;;;;;2.83;2.23;;;;;;;18.65;97.73;100974.78;5053007;28;20212;-71
2023/08/21 03:49:11;;;;;;;2.23;1.80;;;;;;;18.55;99.64;100953.22;5052513;28;20216;-71
2023/08/21 03:51:37;;;;;;;5.53;2.70;;;;;;;18.62;99.75;100945.84;5053242;28;20224;-71
2023/08/21 03:54:04;;;;;;;3.07;2.67;;;;;;;18.64;100.00;100938.72;5052717;28;20211;-71
2023/08/21 03:56:31;;;;;;;4.50;2.50;;;;;;;18.68;100.00;100932.34;5052886;28;20234;-71
2023/08/21 03:58:59;;;;;;;3.63;2.43;;;;;;;18.88;100.00;100934.13;5052232;28;20204;-72
2023/08/21 04:01:25;;;;;;;2.50;2.30;;;;;;;19.14;100.00;100924.13;5052531;28;20233;-71
2023/08/21 04:03:52;;;;;;;4.80;2.80;;;;;;;19.32;99.58;100952.38;5052425;28;20216;-73
2023/08/21 04:06:18;;;;;;;2.90;2.70;;;;;;;19.29;95.65;101013.41;5052752;28;20231;-71
2023/08/21 04:08:45;;;;;;;3.13;2.13;;;;;;;19.16;95.91;101044.00;5052522;28;20220;-71
2023/08/21 04:11:11;;;;;;;2.73;2.53;;;;;;;18.98;96.31;101048.34;5052507;28;20212;-71
2023/08/21 04:13:38;;;;;;;2.90;2.70;;;;;;;18.83;96.91;101042.78;5052429;28;20212;-71
2023/08/21 04:16:05;;;;;;;2.97;2.70;;;;;;;18.65;97.79;101036.50;5052596;28;20205;-71
2023/08/21 04:18:32;;;;;;;4.37;3.13;;;;;;;18.52;99.06;101023.84;5052419;28;20209;-71
2023/08/21 04:20:59;;;;;;;4.03;3.07;;;;;;;18.26;100.00;100992.31;5052256;28;20212;-71
2023/08/21 04:23:25;;;;;;;3.30;3.00;;;;;;;18.19;100.00;100961.78;5052164;28;20250;-71
2023/08/21 04:25:52;;;;;;;4.60;3.30;;;;;;;18.15;100.00;100943.47;5052232;28;20724;-71
2023/08/21 04:28:18;;;;;;;5.40;3.10;;;;;;;18.05;100.00;100940.38;5051919;28;20226;-71
2023/08/21 04:30:45;;;;;;;3.80;3.37;;;;;;;18.03;100.00;100934.28;5052096;28;20215;-74
2023/08/21 04:33:12;;;;;;;4.33;3.10;;;;;;;18.04;100.00;100934.22;5052235;28;20228;-74
2023/08/21 04:35:39;;;;;;;3.17;2.87;;;;;;;17.98;100.00;100941.56;5051934;28;20278;-74
2023/08/21 04:38:07;;;;;;;3.27;2.77;;;;;;;18.15;100.00;100931.13;5052050;28;20291;-74
2023/08/21 04:40:33;;;;;;;3.57;2.93;;;;;;;18.32;100.00;100943.63;5052098;28;20208;-71
2023/08/21 04:43:00;;;;;;;6.93;4.43;;;;;;;18.35;100.00;100985.75;5051403;28;20234;-71
2023/08/21 04:45:26;;;;;;;4.23;2.90;;;;;;;18.50;100.00;101000.13;5051891;28;20777;-71
2023/08/21 04:47:53;;;;;;;2.80;2.60;;;;;;;18.43;99.41;101036.56;5052155;28;20206;-71
2023/08/21 04:50:21;;;;;;;5.57;3.23;;;;;;;18.63;100.00;101026.88;5051934;28;20211;-71
2023/08/21 04:52:48;;;;;;;2.50;2.10;;;;;;;18.86;100.00;101007.41;5051783;28;20228;-71
2023/08/21 04:55:15;;;;;;;2.77;1.90;;;;;;;19.13;100.00;100999.16;5051779;28;20692;-71
2023/08/21 04:57:42;;;;;;;3.90;1.67;;;;;;;19.29;99.26;101057.56;5051613;28;20208;-71
2023/08/21 05:00:10;;;;;;;1.80;1.63;;;;;;;19.19;93.80;101136.50;5051260;28;20666;-71
2023/08/21 05:02:36;;;;;;;2.37;1.80;;;;;;;19.32;95.16;101137.69;5051825;28;20282;-72
2023/08/21 05:05:04;;;;;;;1.17;1.10;;;;;;;19.09;91.90;101206.63;5051562;28;20230;-71
2023/08/21 05:07:32;;;;;;;5.13;2.40;;;;;;;19.20;92.34;101202.59;5051738;28;20681;-71
2023/08/21 05:10:00;;;;;;;2.73;1.70;;;;;;;19.16;91.74;101222.19;5051590;28;20672;-71
2023/08/21 05:12:26;;;;;;;4.10;2.03;;;;;;;19.16;92.01;101222.19;5051381;28;20220;-71
2023/08/21 05:15:09;;;;;;;1.80;1.57;;;;;;;18.95;92.52;101229.25;5088359;28;21112;-74
2023/08/21 05:17:36;;;;;;;1.83;1.50;;;;;;;18.86;92.42;101242.84;5088941;28;20215;-72
2023/08/21 05:20:03;;;;;;;2.20;1.80;;;;;;;18.91;92.35;101238.25;5087527;28;20215;-73
2023/08/21 05:22:29;;;;;;;3.63;1.40;;;;;;;19.01;92.22;101246.66;5075859;28;20776;-73
2023/08/21 05:24:55;;;;;;;3.47;1.67;;;;;;;19.07;90.09;101261.41;5068535;28;20210;-73
2023/08/21 05:27:22;;;;;;;3.80;1.70;;;;;;;19.01;90.00;101281.06;5068643;28;20214;-73
2023/08/21 05:29:51;;;;;;;2.30;1.57;;;;;;;18.87;89.25;101278.97;5068246;28;20567;-73
2023/08/21 05:32:18;;;;;;;3.77;1.80;;;;;;;18.98;88.03;101305.84;5068632;28;20254;-73
2023/08/21 05:34:45;;;;;;;2.10;1.37;;;;;;;19.13;89.52;101290.28;5068248;28;20235;-73
2023/08/21 05:37:12;;;;;;;2.40;1.40;;;;;;;19.42;89.67;101265.22;5068657;28;20206;-73
2023/08/21 05:39:38;;;;;;;2.30;1.50;;;;;;;19.63;91.18;101247.56;5067927;28;20217;-73
2023/08/21 05:42:05;;;;;;;13.30;1.63;;;;;;;19.95;93.41;101197.59;5068257;28;20239;-74
2023/08/21 05:44:32;;;;;;;3.70;1.57;;;;;;;20.22;92.79;101212.22;5067466;28;20208;-73
2023/08/21 05:46:58;;;;;;;1.40;1.30;;;;;;;20.42;90.67;101248.41;5068412;28;20214;-72
2023/08/21 05:49:26;;;;;;;3.63;1.57;;;;;;;20.30;83.29;101384.22;5067845;28;20207;-71
2023/08/21 05:51:53;;;;;;;2.53;1.50;;;;;;;20.31;82.91;101401.81;5067906;28;20733;-71
2023/08/21 05:54:20;;;;;;;2.90;1.20;;;;;;;20.27;83.89;101423.25;5068650;28;20242;-71
2023/08/21 05:56:46;;;;;;;2.03;1.87;;;;;;;19.87;85.10;101417.00;5067765;28;20212;-72
2023/08/21 05:59:12;;;;;;;3.20;1.60;;;;;;;19.59;87.02;101387.19;5067164;28;20216;-72
2023/08/21 06:01:39;;;;;;;2.47;1.90;;;;;;;19.49;86.63;101379.72;5067282;28;20726;-72
2023/08/21 06:04:06;;;;;;;5.73;1.50;;;;;;;19.58;88.20;101352.81;5073448;28;20213;-72
2023/08/21 06:06:33;;;;;;;1.60;1.50;;;;;;;19.57;87.96;101338.72;5067237;28;20208;-72
2023/08/21 06:09:00;;;;;;;2.03;1.50;;;;;;;19.47;85.66;101363.88;5068044;28;20208;-72
2023/08/21 06:11:27;;;;;;;2.80;1.67;;;;;;;19.73;86.34;101365.47;5067530;28;20226;-73
2023/08/21 06:13:53;;;;;;;2.00;1.30;;;;;;;19.97;87.53;101337.03;5066903;28;20227;-73
2023/08/21 06:16:20;;;;;;;4.40;1.70;;;;;;;19.94;86.18;101368.09;5067483;28;20205;-72
2023/08/21 06:18:46;;;;;;;6.83;2.00;;;;;;;19.91;87.17;101352.34;5067194;28;20219;-73
2023/08/21 06:21:13;;;;;;;2.00;1.83;;;;;;;19.76;87.23;101346.81;5058048;28;20201;-73
2023/08/21 06:23:41;;;;;;;1.73;1.53;;;;;;;19.87;88.14;101321.63;5059902;28;20638;-72
2023/08/21 06:26:07;;;;;;;3.27;1.63;;;;;;;19.83;87.76;101344.75;5047543;28;20202;-72
2023/08/21 06:28:34;;;;;;;2.27;2.03;;;;;;;19.86;87.29;101356.97;5047663;28;20205;-72
2023/08/21 06:31:03;;;;;;;2.23;1.80;;;;;;;19.75;86.37;101358.31;5050945;28;20216;-72
2023/08/21 06:33:29;;;;;;;3.33;1.50;;;;;;;19.83;86.72;101371.22;5045098;28;20225;-72
2023/08/21 06:35:56;;;;;;;2.10;1.90;;;;;;;19.84;86.49;101370.28;5048404;28;20216;-72
2023/08/21 06:38:22;;;;;;;1.83;1.50;;;;;;;19.81;85.88;101379.25;5045821;28;20212;-72
2023/08/21 06:40:50;;;;;;;2.47;1.70;;;;;;;19.81;85.71;101381.03;5047741;28;20212;-73
2023/08/21 06:43:17;;;;;;;3.10;1.90;;;;;;;20.07;86.11;101371.97;5045868;28;20225;-73
2023/08/21 06:45:43;;;;;;;2.77;1.70;;;;;;;20.21;84.61;101388.09;5046843;28;20296;-72
2023/08/21 06:48:10;;;;;;;1.97;1.47;;;;;;;20.43;84.54;101403.97;5047246;28;20263;-72
2023/08/21 06:50:38;;;;;;;2.87;1.80;;;;;;;20.52;83.22;101429.19;5045812;28;20235;-72
2023/08/21 06:53:04;;;;;;;1.53;1.43;;;;;;;20.68;83.84;101436.50;5047650;28;20233;-72
2023/08/21 06:55:31;;;;;;;2.23;1.40;;;;;;;20.66;83.48;101451.63;5045042;28;20236;-72
2023/08/21 06:57:59;;;;;;;1.73;1.50;;;;;;;20.80;82.58;101451.84;5047319;28;20209;-72
2023/08/21 07:00:25;;;;;;;2.10;1.77;;;;;;;20.95;82.36;101435.25;5047249;28;20667;-72
2023/08/21 07:02:52;;;;;;;2.30;1.80;;;;;;;20.74;82.40;101468.06;5047000;28;20633;-72
2023/08/21 07:05:18;;;;;;;2.13;1.60;;;;;;;20.92;82.66;101461.06;5046020;28;20208;-72
2023/08/21 07:07:45;;;;;;;3.37;1.40;;;;;;;21.04;81.99;101473.75;5046521;28;20205;-72
2023/08/21 07:10:12;;;;;;;3.53;1.37;;;;;;;21.17;81.36;101490.84;5050772;28;20214;-72
2023/08/21 07:12:38;;;;;;;2.00;1.30;;;;;;;21.28;81.13;101500.97;5052937;28;20627;-72
2023/08/21 07:15:10;;;;;;;2.87;1.50;;;;;;;21.32;80.81;101510.50;5053139;28;20228;-72
2023/08/21 07:17:37;;;;;;;1.77;1.60;;;;;;;21.35;79.97;101522.81;5053066;28;20680;-72
2023/08/21 07:20:04;;;;;;;2.43;2.23;;;;;;;21.22;80.43;101518.03;5052969;28;20678;-73
2023/08/21 07:22:30;;;;;;;1.87;1.77;;;;;;;21.27;80.75;101506.34;5052591;28;20282;-72
2023/08/21 07:24:57;;;;;;;3.27;1.67;;;;;;;21.43;79.73;101523.31;5052514;28;20213;-72
2023/08/21 07:27:23;;;;;;;2.70;1.60;;;;;;;21.47;79.73;101527.56;5053221;28;20212;-72
2023/08/21 07:29:50;;;;;;;3.33;1.50;;;;;;;21.57;79.73;101526.19;5052337;28;20233;-72
2023/08/21 07:32:18;;;;;;;2.10;1.90;;;;;;;21.69;79.15;101546.00;5053225;28;20282;-73
2023/08/21 07:34:44;;;;;;;2.97;1.87;;;;;;;21.78;78.32;101560.63;5052596;28;20229;-72
2023/08/21 07:37:11;;;;;;;1.90;1.50;;;;;;;21.74;79.01;101557.28;5051799;28;20217;-73
2023/08/21 07:39:37;;;;;;;4.00;1.60;;;;;;;21.81;79.18;101548.06;5052853;28;20209;-73
2023/08/21 07:42:04;;;;;;;1.80;1.70;;;;;;;21.68;80.60;101522.16;5052427;28;20637;-73
2023/08/21 07:44:31;;;;;;;4.13;1.90;;;;;;;21.39;82.00;101493.34;5051017;28;20201;-72
2023/08/21 07:46:57;;;;;;;2.40;2.13;;;;;;;21.46;82.59;101474.50;5051978;28;20239;-72
2023/08/21 07:49:25;;;;;;;1.67;1.57;;;;;;;21.35;83.01;101461.72;5052511;28;20213;-72
2023/08/21 07:51:52;;;;;;;2.00;1.10;;;;;;;21.55;82.89;101453.66;5051800;28;20227;-73
2023/08/21 07:54:18;;;;;;;2.67;1.53;;;;;;;21.51;83.12;101438.81;5052392;28;20701;-72
2023/08/21 07:56:45;;;;;;;4.30;1.80;;;;;;;21.72;82.64;101449.31;5052460;28;20287;-72
2023/08/21 07:59:11;;;;;;;4.33;1.90;;;;;;;21.89;81.93;101457.31;5051871;28;20214;-72
2023/08/21 08:01:37;;;;;;;3.23;1.67;;;;;;;21.94;79.58;101507.56;5052420;28;20230;-72
2023/08/21 08:04:04;;;;;;;3.43;1.77;;;;;;;22.12;79.45;101529.72;5052461;28;20201;-72
2023/08/21 08:06:33;;;;;;;5.90;2.43;;;;;;;22.21;80.28;101514.16;5052359;28;20205;-72
2023/08/21 08:08:59;;;;;;;3.97;1.80;;;;;;;22.31;79.42;101530.56;5052267;28;20197;-72
2023/08/21 08:11:26;;;;;;;3.10;1.80;;;;;;;22.26;76.74;101579.59;5052220;28;20221;-73
2023/08/21 08:13:52;;;;;;;3.67;2.07;;;;;;;22.16;77.10;101605.75;5051546;28;20213;-72
2023/08/21 08:16:19;;;;;;;5.53;2.20;;;;;;;22.24;77.66;101603.66;5052325;28;20202;-72
2023/08/21 08:18:45;;;;;;;4.30;1.70;;;;;;;22.45;78.14;101574.25;5051892;28;20594;-72
2023/08/21 08:21:12;;;;;;;3.73;1.63;;;;;;;22.59;77.18;101587.69;5052092;28;20240;-72
2023/08/21 08:23:39;;;;;;;3.10;1.90;;;;;;;22.60;75.07;101613.38;5052154;28;20202;-72
2023/08/21 08:26:07;;;;;;;2.50;1.83;;;;;;;22.61;74.20;101655.00;5052038;28;20568;-72
2023/08/21 08:28:35;;;;;;;2.97;2.17;;;;;;;22.67;75.06;101660.03;5051800;28;20257;-72
2023/08/21 08:31:01;;;;;;;2.50;1.80;;;;;;;22.75;76.26;101649.84;5051659;28;20683;-72
2023/08/21 08:33:28;;;;;;;3.60;1.93;;;;;;;22.85;77.51;101601.47;5051865;28;20213;-72
2023/08/21 08:35:54;;;;;;;2.80;1.97;;;;;;;22.70;76.15;101627.94;5051807;28;20311;-72
2023/08/21 08:38:21;;;;;;;2.90;2.20;;;;;;;22.85;75.62;101634.28;5051562;28;20208;-72
2023/08/21 08:40:52;;;;;;;2.33;2.10;;;;;;;22.85;72.79;101682.19;5051542;28;20198;-72
2023/08/21 08:43:18;;;;;;;3.17;1.83;;;;;;;22.99;73.12;101698.34;5051211;28;20252;-73
2023/08/21 08:45:48;;;;;;;2.13;1.80;;;;;;;23.10;70.07;101756.44;5051891;28;20205;-73
2023/08/21 08:48:14;;;;;;;3.60;2.00;;;;;;;23.18;69.24;101806.66;5052180;28;20604;-73
2023/08/21 08:50:41;;;;;;;3.03;1.80;;;;;;;23.19;68.59;101835.00;5051280;28;20206;-73
2023/08/21 08:53:08;;;;;;;5.67;1.50;;;;;;;23.26;68.87;101832.91;5050785;28;20221;-73
2023/08/21 08:55:35;;;;;;;3.57;1.43;;;;;;;23.35;68.69;101828.00;5051617;28;20295;-73
2023/08/21 08:58:03;;;;;;;1.70;1.60;;;;;;;23.43;70.01;101803.63;5048024;28;20217;-74
2023/08/21 09:00:29;;;;;;;2.83;1.30;;;;;;;23.48;71.89;101750.91;5050338;28;20250;-75
2023/08/21 09:02:56;;;;;;;3.90;1.67;;;;;;;23.53;70.08;101753.38;5050323;28;20237;-75
2023/08/21 09:05:23;;;;;;;3.17;1.70;;;;;;;23.60;69.66;101760.94;5051571;28;20197;-76
2023/08/21 09:08:03;;;;;;;2.50;1.30;;;;;;;23.69;67.00;101812.94;5050639;28;20224;-77
2023/08/21 09:10:30;;;;;;;2.73;1.63;;;;;;;23.72;66.09;101859.88;5051220;28;20638;-74
2023/08/21 09:12:58;;;;;;;1.57;1.40;;;;;;;23.73;67.27;101864.28;5050936;28;20229;-78
2023/08/21 09:15:30;;;;;;;6.47;1.40;;;;;;;23.70;66.24;101872.44;5051159;28;20705;-76
2023/08/21 09:17:57;;;;;;;3.90;1.40;;;;;;;23.75;65.73;101894.41;5050126;28;20627;-76
2023/08/21 09:20:23;;;;;;;2.80;1.30;;;;;;;23.75;64.36;101921.94;5050223;28;20243;-76
2023/08/21 09:22:55;;;;;;;2.90;1.33;;;;;;;23.73;64.79;101923.81;5051076;28;20601;-76
2023/08/21 09:25:21;;;;;;;4.67;1.93;;;;;;;23.76;66.23;101896.97;5051300;28;20274;-76
2023/08/21 09:27:52;;;;;;;3.80;1.63;;;;;;;23.67;64.28;101918.78;5050886;28;20660;-76
2023/08/21 09:30:19;;;;;;;2.60;1.07;;;;;;;23.74;66.32;101871.34;5050817;28;20215;-76
2023/08/21 09:33:00;;;;;;;3.00;1.40;;;;;;;23.78;67.68;101827.59;5050697;28;20229;-74
2023/08/21 09:35:27;;;;;;;3.97;1.20;;;;;;;23.82;67.29;101793.63;5050982;28;20225;-74
2023/08/21 09:37:53;;;;;;;2.27;1.43;;;;;;;23.87;65.25;101844.94;5050648;28;20212;-74
2023/08/21 09:40:21;;;;;;;2.03;1.27;;;;;;;23.93;64.79;101858.81;5051121;28;20259;-74
2023/08/21 09:42:52;;;;;;;1.07;0.97;;;;;;;23.86;63.11;101909.88;5050505;28;20751;-74
2023/08/21 09:45:21;;;;;;;1.77;1.23;;;;;;;23.78;61.47;101983.16;5050412;28;20198;-74
2023/08/21 09:47:48;;;;;;;1.73;1.10;;;;;;;23.99;62.48;101975.00;5050974;28;20198;-74
2023/08/21 09:50:16;;;;;;;4.37;1.30;;;;;;;24.06;68.45;101859.00;5050790;28;20292;-74
2023/08/21 09:52:44;;;;;;;2.47;1.27;;;;;;;24.19;66.12;101829.88;5050864;28;20227;-74
2023/08/21 09:55:11;;;;;;;3.07;1.30;;;;;;;24.29;62.67;101903.16;5050961;28;20249;-74
2023/08/21 09:57:38;;;;;;;2.30;1.03;;;;;;;24.37;60.52;101964.13;5050734;28;20667;-74
2023/08/21 10:00:15;;;;;;;3.93;1.23;;;;;;;24.41;61.56;101965.69;5051024;28;20208;-74
2023/08/21 10:02:43;;;;;;;2.33;1.07;;;;;;;24.40;59.51;102004.03;5055003;28;20232;-74
2023/08/21 10:05:11;;;;;;;2.37;1.23;;;;;;;24.10;57.58;102074.03;5053310;28;20603;-77
2023/08/21 10:07:39;;;;;;;3.00;1.30;;;;;;;23.93;58.01;102101.53;5054019;28;20201;-77
2023/08/21 10:10:07;;;;;;;3.07;1.87;;;;;;;24.24;59.55;102061.78;5054068;28;20655;-74
2023/08/21 10:12:33;;;;;;;3.30;1.50;;;;;;;24.29;58.20;102063.28;4700871;28;9999793;-76
2023/08/21 10:15:00;;;;;;;3.10;1.30;;;;;;;24.52;61.56;102011.41;5049798;28;20221;-74
2023/08/21 10:17:27;;;;;;;4.43;1.83;;;;;;;24.66;58.57;102042.75;5050081;28;20213;-74
2023/08/21 10:19:53;;;;;;;2.93;1.20;;;;;;;24.85;58.05;102058.63;5050178;28;20702;-74
2023/08/21 10:22:43;;;;;;;1.60;0.80;;;;;;;25.06;57.59;102075.31;5049559;28;20225;-73
2023/08/21 10:25:16;;;;;;;2.73;1.00;;;;;;;25.00;55.87;102142.47;5050533;28;20205;-74
2023/08/21 10:27:43;;;;;;;1.80;1.20;;;;;;;25.18;58.52;102084.50;5050454;28;20271;-73
2023/08/21 10:30:15;;;;;;;2.27;1.53;;;;;;;25.24;57.30;102086.88;5050088;28;20223;-73
2023/08/21 10:32:45;;;;;;;2.80;1.10;;;;;;;25.21;56.68;102108.38;5050463;28;20233;-74
2023/08/21 10:35:15;;;;;;;1.20;1.10;;;;;;;25.22;56.19;102120.81;5050730;28;20666;-74
2023/08/21 10:38:08;;;;;;;2.07;1.20;;;;;;;25.33;57.36;102117.56;5050886;28;20873;-73
2023/08/21 10:40:34;;;;;;;4.50;1.07;;;;;;;25.40;57.43;102104.75;5050729;28;20224;-74
2023/08/21 10:43:02;;;;;;;3.33;1.27;;;;;;;25.38;57.50;102102.16;5049528;28;20703;-73
2023/08/21 10:45:28;;;;;;;2.93;1.40;;;;;;;25.49;57.45;102085.50;5046162;28;20698;-74
2023/08/21 10:47:57;;;;;;;2.93;1.50;;;;;;;25.64;57.56;102081.97;5045177;28;20575;-74
2023/08/21 10:50:24;;;;;;;2.27;1.17;;;;;;;25.60;55.22;102111.66;5045027;28;20575;-74
2023/08/21 10:52:53;;;;;;;2.77;1.40;;;;;;;25.74;58.92;102068.94;5042621;28;20225;-72
2023/08/21 10:55:21;;;;;;;3.13;1.40;;;;;;;25.81;57.52;102056.06;5045095;28;20226;-75
2023/08/21 10:57:49;;;;;;;4.73;1.87;;;;;;;25.67;55.78;102088.94;5042453;28;20210;-77
2023/08/21 11:00:17;;;;;;;3.23;1.53;;;;;;;25.27;54.68;102112.56;5043664;28;20255;-74
2023/08/21 11:02:45;;;;;;;2.37;1.40;;;;;;;25.28;54.70;102117.81;5042109;28;20225;-74
2023/08/21 11:05:13;;;;;;;2.70;1.03;;;;;;;25.58;56.59;102089.50;5046231;28;20210;-73
2023/08/21 11:07:43;;;;;;;2.27;1.50;;;;;;;25.80;57.44;102046.34;5047485;28;20205;-73
2023/08/21 11:10:13;;;;;;;2.73;1.60;;;;;;;25.98;57.01;102055.97;5049731;28;20209;-73
2023/08/21 11:12:49;;;;;;;2.17;1.57;;;;;;;26.12;54.61;102101.56;5043147;28;20239;-73
2023/08/21 11:15:16;;;;;;;1.77;1.13;;;;;;;26.17;54.03;102140.59;5043640;28;20256;-73
2023/08/21 11:17:42;;;;;;;1.97;1.10;;;;;;;26.01;57.41;102109.34;5041540;28;20205;-74
2023/08/21 11:20:10;;;;;;;2.17;1.53;;;;;;;25.64;53.89;102143.47;5042843;28;20213;-73
2023/08/21 11:22:36;;;;;;;1.63;1.23;;;;;;;25.70;55.44;102129.75;5042076;28;20233;-74
2023/08/21 11:25:03;;;;;;;1.60;1.13;;;;;;;25.87;58.15;102058.41;5049326;28;20663;-74